sensor_id;sensor_type;location;lat;lon;timestamp;pressure;altitude;pressure_sealevel;temperature;humidity
77410;BME280;66481;51.332;22.804;2023-10-09T00:02:38;100181.00;;;1.76;86.48
77410;BME280;66481;51.332;22.804;2023-10-09T00:06:44;100182.91;;;1.69;86.50
77410;BME280;66481;51.332;22.804;2023-10-09T00:10:45;100180.59;;;1.60;87.31
77410;BME280;66481;51.332;22.804;2023-10-09T00:14:57;100187.88;;;1.78;87.28
77410;BME280;66481;51.332;22.804;2023-10-09T00:19:13;100194.00;;;1.77;87.16
77410;BME280;66481;51.332;22.804;2023-10-09T00:23:33;100189.13;;;1.65;87.29
77410;BME280;66481;51.332;22.804;2023-10-09T00:27:34;100182.13;;;1.67;87.41
77410;BME280;66481;51.332;22.804;2023-10-09T00:31:36;100191.38;;;1.77;87.26
77410;BME280;66481;51.332;22.804;2023-10-09T00:35:39;100187.22;;;1.72;87.17
77410;BME280;66481;51.332;22.804;2023-10-09T00:39:54;100177.97;;;1.60;87.31
77410;BME280;66481;51.332;22.804;2023-10-09T00:43:58;100173.13;;;1.47;88.06
77410;BME280;66481;51.332;22.804;2023-10-09T00:48:00;100169.00;;;1.40;88.59
77410;BME280;66481;51.332;22.804;2023-10-09T00:52:03;100167.69;;;1.55;88.36
77410;BME280;66481;51.332;22.804;2023-10-09T00:56:04;100180.00;;;1.50;88.43
77410;BME280;66481;51.332;22.804;2023-10-09T01:00:29;100169.19;;;1.33;88.64
77410;BME280;66481;51.332;22.804;2023-10-09T01:04:46;100173.41;;;1.37;88.56
77410;BME280;66481;51.332;22.804;2023-10-09T01:08:47;100177.75;;;1.38;89.17
77410;BME280;66481;51.332;22.804;2023-10-09T01:13:09;100184.53;;;1.43;88.81
77410;BME280;66481;51.332;22.804;2023-10-09T01:17:10;100184.72;;;1.37;89.08
77410;BME280;66481;51.332;22.804;2023-10-09T01:21:12;100184.63;;;1.40;89.14
77410;BME280;66481;51.332;22.804;2023-10-09T01:25:14;100177.59;;;1.44;88.85
77410;BME280;66481;51.332;22.804;2023-10-09T01:29:21;100187.97;;;1.45;88.95
77410;BME280;66481;51.332;22.804;2023-10-09T01:33:22;100187.09;;;1.45;88.92
77410;BME280;66481;51.332;22.804;2023-10-09T01:37:24;100166.44;;;1.39;89.17
77410;BME280;66481;51.332;22.804;2023-10-09T01:41:30;100157.78;;;1.37;89.07
77410;BME280;66481;51.332;22.804;2023-10-09T01:45:34;100161.06;;;1.43;88.54
77410;BME280;66481;51.332;22.804;2023-10-09T01:49:42;100161.91;;;1.45;88.79
77410;BME280;66481;51.332;22.804;2023-10-09T01:53:50;100149.25;;;1.31;89.09
77410;BME280;66481;51.332;22.804;2023-10-09T01:57:57;100165.81;;;1.29;89.21
77410;BME280;66481;51.332;22.804;2023-10-09T02:01:58;100179.00;;;1.23;89.32
77410;BME280;66481;51.332;22.804;2023-10-09T02:06:01;100168.91;;;1.12;89.67
77410;BME280;66481;51.332;22.804;2023-10-09T02:10:05;100167.97;;;1.15;90.00
77410;BME280;66481;51.332;22.804;2023-10-09T02:14:12;100181.09;;;1.11;90.28
77410;BME280;66481;51.332;22.804;2023-10-09T02:18:25;100185.22;;;1.19;90.94
77410;BME280;66481;51.332;22.804;2023-10-09T02:22:34;100170.63;;;1.13;90.29
77410;BME280;66481;51.332;22.804;2023-10-09T02:26:35;100166.38;;;1.09;90.95
77410;BME280;66481;51.332;22.804;2023-10-09T02:30:38;100152.56;;;1.05;91.28
77410;BME280;66481;51.332;22.804;2023-10-09T02:34:42;100155.31;;;1.01;91.17
77410;BME280;66481;51.332;22.804;2023-10-09T02:38:47;100147.63;;;0.96;91.54
77410;BME280;66481;51.332;22.804;2023-10-09T02:42:49;100155.28;;;1.02;91.33
77410;BME280;66481;51.332;22.804;2023-10-09T02:46:50;100137.94;;;1.01;91.58
77410;BME280;66481;51.332;22.804;2023-10-09T02:50:51;100142.38;;;0.98;91.88
77410;BME280;66481;51.332;22.804;2023-10-09T02:54:53;100128.88;;;0.83;92.26
77410;BME280;66481;51.332;22.804;2023-10-09T02:59:01;100133.03;;;0.90;92.43
77410;BME280;66481;51.332;22.804;2023-10-09T03:03:06;100144.09;;;0.99;92.28
77410;BME280;66481;51.332;22.804;2023-10-09T03:07:08;100142.97;;;1.07;92.41
77410;BME280;66481;51.332;22.804;2023-10-09T03:11:11;100158.34;;;1.17;91.80
77410;BME280;66481;51.332;22.804;2023-10-09T03:15:13;100147.09;;;1.16;92.12
77410;BME280;66481;51.332;22.804;2023-10-09T03:19:14;100129.88;;;1.09;92.00
77410;BME280;66481;51.332;22.804;2023-10-09T03:23:15;100154.69;;;1.24;91.82
77410;BME280;66481;51.332;22.804;2023-10-09T03:27:17;100141.53;;;1.28;91.47
77410;BME280;66481;51.332;22.804;2023-10-09T03:31:18;100123.28;;;1.28;91.57
77410;BME280;66481;51.332;22.804;2023-10-09T03:35:21;100139.63;;;1.34;91.34
77410;BME280;66481;51.332;22.804;2023-10-09T03:39:25;100137.97;;;1.31;91.41
77410;BME280;66481;51.332;22.804;2023-10-09T03:43:47;100136.31;;;1.28;91.25
77410;BME280;66481;51.332;22.804;2023-10-09T03:47:49;100144.56;;;1.43;91.21
77410;BME280;66481;51.332;22.804;2023-10-09T03:51:50;100138.47;;;1.44;91.49
77410;BME280;66481;51.332;22.804;2023-10-09T03:55:51;100141.91;;;1.44;91.45
77410;BME280;66481;51.332;22.804;2023-10-09T03:59:52;100130.19;;;1.29;91.75
77410;BME280;66481;51.332;22.804;2023-10-09T04:03:53;100124.16;;;1.27;92.31
77410;BME280;66481;51.332;22.804;2023-10-09T04:08:00;100139.72;;;1.30;92.54
77410;BME280;66481;51.332;22.804;2023-10-09T04:12:02;100125.59;;;1.38;92.22
77410;BME280;66481;51.332;22.804;2023-10-09T04:16:12;100132.50;;;1.40;92.10
77410;BME280;66481;51.332;22.804;2023-10-09T04:20:39;100137.59;;;1.43;92.36
77410;BME280;66481;51.332;22.804;2023-10-09T04:24:59;100137.63;;;1.42;92.23
77410;BME280;66481;51.332;22.804;2023-10-09T04:29:01;100142.56;;;1.53;92.28
77410;BME280;66481;51.332;22.804;2023-10-09T04:33:03;100142.56;;;1.53;92.49
77410;BME280;66481;51.332;22.804;2023-10-09T04:37:11;100132.00;;;1.56;92.79
77410;BME280;66481;51.332;22.804;2023-10-09T04:41:15;100139.56;;;1.65;92.45
77410;BME280;66481;51.332;22.804;2023-10-09T04:45:30;100142.19;;;1.65;92.77
77410;BME280;66481;51.332;22.804;2023-10-09T04:49:50;100149.06;;;1.67;92.63
77410;BME280;66481;51.332;22.804;2023-10-09T04:54:03;100149.81;;;1.71;92.76
77410;BME280;66481;51.332;22.804;2023-10-09T04:58:14;100152.72;;;2.18;92.51
77410;BME280;66481;51.332;22.804;2023-10-09T05:02:24;100129.06;;;1.96;91.77
77410;BME280;66481;51.332;22.804;2023-10-09T05:06:36;100129.94;;;1.95;91.71
77410;BME280;66481;51.332;22.804;2023-10-09T05:10:43;100136.50;;;1.80;92.44
77410;BME280;66481;51.332;22.804;2023-10-09T05:15:04;100146.06;;;1.80;92.52
77410;BME280;66481;51.332;22.804;2023-10-09T05:19:15;100157.13;;;1.88;92.97
77410;BME280;66481;51.332;22.804;2023-10-09T05:23:42;100172.56;;;1.96;92.45
77410;BME280;66481;51.332;22.804;2023-10-09T05:27:49;100156.91;;;1.96;92.77
77410;BME280;66481;51.332;22.804;2023-10-09T05:32:13;100161.25;;;1.95;92.42
77410;BME280;66481;51.332;22.804;2023-10-09T05:36:14;100162.16;;;1.94;92.52
77410;BME280;66481;51.332;22.804;2023-10-09T05:40:27;100153.47;;;1.94;92.57
77410;BME280;66481;51.332;22.804;2023-10-09T05:44:31;100146.34;;;1.99;92.55
77410;BME280;66481;51.332;22.804;2023-10-09T05:48:51;100145.06;;;2.12;92.28
77410;BME280;66481;51.332;22.804;2023-10-09T05:52:56;100128.47;;;2.15;91.96
77410;BME280;66481;51.332;22.804;2023-10-09T05:57:05;100115.75;;;2.04;92.10
77410;BME280;66481;51.332;22.804;2023-10-09T06:01:25;100118.81;;;2.17;92.20
77410;BME280;66481;51.332;22.804;2023-10-09T06:05:50;100118.50;;;2.26;91.87
77410;BME280;66481;51.332;22.804;2023-10-09T06:09:58;100121.72;;;2.34;92.04
77410;BME280;66481;51.332;22.804;2023-10-09T06:14:11;100117.69;;;2.51;91.78
77410;BME280;66481;51.332;22.804;2023-10-09T06:18:14;100121.75;;;2.59;91.04
77410;BME280;66481;51.332;22.804;2023-10-09T06:22:33;100112.16;;;2.60;91.00
77410;BME280;66481;51.332;22.804;2023-10-09T06:26:37;100113.03;;;2.86;90.09
77410;BME280;66481;51.332;22.804;2023-10-09T06:30:38;100103.94;;;2.96;89.95
77410;BME280;66481;51.332;22.804;2023-10-09T06:34:52;100100.16;;;3.05;89.56
77410;BME280;66481;51.332;22.804;2023-10-09T06:38:53;100089.44;;;3.11;89.14
77410;BME280;66481;51.332;22.804;2023-10-09T06:43:14;100095.56;;;3.33;88.74
77410;BME280;66481;51.332;22.804;2023-10-09T06:47:27;100093.63;;;3.62;88.09
77410;BME280;66481;51.332;22.804;2023-10-09T06:51:28;100084.19;;;3.80;87.03
77410;BME280;66481;51.332;22.804;2023-10-09T06:55:35;100081.69;;;3.99;86.55
77410;BME280;66481;51.332;22.804;2023-10-09T06:59:48;100080.81;;;4.21;85.40
77410;BME280;66481;51.332;22.804;2023-10-09T07:04:09;100074.06;;;4.36;84.00
77410;BME280;66481;51.332;22.804;2023-10-09T07:08:20;100070.00;;;4.28;83.94
77410;BME280;66481;51.332;22.804;2023-10-09T07:12:33;100068.09;;;4.32;83.40
77410;BME280;66481;51.332;22.804;2023-10-09T07:16:34;100068.28;;;4.48;84.45
77410;BME280;66481;51.332;22.804;2023-10-09T07:20:57;100065.66;;;4.48;83.55
77410;BME280;66481;51.332;22.804;2023-10-09T07:25:02;100054.88;;;4.56;83.02
77410;BME280;66481;51.332;22.804;2023-10-09T07:29:15;100053.75;;;4.41;83.39
77410;BME280;66481;51.332;22.804;2023-10-09T07:33:16;100064.41;;;4.77;83.90
77410;BME280;66481;51.332;22.804;2023-10-09T07:37:17;100067.06;;;4.96;82.84
77410;BME280;66481;51.332;22.804;2023-10-09T07:41:19;100071.34;;;5.18;83.49
77410;BME280;66481;51.332;22.804;2023-10-09T07:45:20;100064.97;;;5.23;81.35
77410;BME280;66481;51.332;22.804;2023-10-09T07:49:21;100066.50;;;5.27;81.28
77410;BME280;66481;51.332;22.804;2023-10-09T07:53:26;100078.09;;;5.42;82.27
77410;BME280;66481;51.332;22.804;2023-10-09T07:57:30;100071.44;;;5.35;82.01
77410;BME280;66481;51.332;22.804;2023-10-09T08:01:41;100071.56;;;5.32;81.90
77410;BME280;66481;51.332;22.804;2023-10-09T08:05:53;100074.63;;;5.42;82.30
77410;BME280;66481;51.332;22.804;2023-10-09T08:10:08;100089.69;;;5.75;82.09
77410;BME280;66481;51.332;22.804;2023-10-09T08:14:18;100079.75;;;6.00;81.22
77410;BME280;66481;51.332;22.804;2023-10-09T08:18:34;100071.13;;;5.97;81.14
77410;BME280;66481;51.332;22.804;2023-10-09T08:22:46;100072.03;;;6.50;78.75
77410;BME280;66481;51.332;22.804;2023-10-09T08:27:09;100064.63;;;6.91;76.45
77410;BME280;66481;51.332;22.804;2023-10-09T08:31:28;100050.84;;;7.67;74.44
77410;BME280;66481;51.332;22.804;2023-10-09T08:35:38;100041.28;;;8.72;71.34
77410;BME280;66481;51.332;22.804;2023-10-09T08:39:48;100017.47;;;7.98;68.66
77410;BME280;66481;51.332;22.804;2023-10-09T08:43:52;100033.72;;;7.90;68.99
77410;BME280;66481;51.332;22.804;2023-10-09T08:47:53;100023.25;;;7.43;70.20
77410;BME280;66481;51.332;22.804;2023-10-09T08:51:58;100018.47;;;7.18;72.18
77410;BME280;66481;51.332;22.804;2023-10-09T08:56:04;100033.94;;;7.08;72.86
77410;BME280;66481;51.332;22.804;2023-10-09T09:00:05;100023.22;;;7.11;72.31
77410;BME280;66481;51.332;22.804;2023-10-09T09:04:10;100036.50;;;7.25;72.21
77410;BME280;66481;51.332;22.804;2023-10-09T09:08:21;100033.41;;;7.49;71.01
77410;BME280;66481;51.332;22.804;2023-10-09T09:12:25;100039.44;;;7.83;69.48
77410;BME280;66481;51.332;22.804;2023-10-09T09:16:33;100035.06;;;8.28;69.00
77410;BME280;66481;51.332;22.804;2023-10-09T09:20:36;100037.59;;;8.89;67.31
77410;BME280;66481;51.332;22.804;2023-10-09T09:24:58;100024.78;;;9.53;64.99
77410;BME280;66481;51.332;22.804;2023-10-09T09:29:05;100015.41;;;9.34;63.25
77410;BME280;66481;51.332;22.804;2023-10-09T09:33:27;100022.22;;;10.46;60.22
77410;BME280;66481;51.332;22.804;2023-10-09T09:37:40;100001.06;;;10.06;60.37
77410;BME280;66481;51.332;22.804;2023-10-09T09:41:45;99976.97;;;9.70;59.97
77410;BME280;66481;51.332;22.804;2023-10-09T09:45:48;99971.81;;;9.41;62.16
77410;BME280;66481;51.332;22.804;2023-10-09T09:49:51;99981.03;;;9.49;61.67
77410;BME280;66481;51.332;22.804;2023-10-09T09:53:53;99939.53;;;8.68;62.99
77410;BME280;66481;51.332;22.804;2023-10-09T09:57:56;99957.66;;;9.15;62.64
77410;BME280;66481;51.332;22.804;2023-10-09T10:01:58;99950.81;;;8.84;61.72
77410;BME280;66481;51.332;22.804;2023-10-09T10:06:07;99946.97;;;9.17;63.17
77410;BME280;66481;51.332;22.804;2023-10-09T10:10:35;99952.94;;;9.06;62.89
77410;BME280;66481;51.332;22.804;2023-10-09T10:14:59;99955.72;;;9.72;62.34
77410;BME280;66481;51.332;22.804;2023-10-09T10:19:06;99949.91;;;10.58;61.84
77410;BME280;66481;51.332;22.804;2023-10-09T10:23:19;99918.38;;;10.55;60.74
77410;BME280;66481;51.332;22.804;2023-10-09T10:27:21;99892.19;;;9.20;59.65
77410;BME280;66481;51.332;22.804;2023-10-09T10:32:05;99889.03;;;9.55;59.84
77410;BME280;66481;51.332;22.804;2023-10-09T10:36:09;99883.00;;;9.79;61.17
77410;BME280;66481;51.332;22.804;2023-10-09T10:40:10;99860.75;;;9.30;59.44
77410;BME280;66481;51.332;22.804;2023-10-09T10:44:31;99867.09;;;9.93;60.33
77410;BME280;66481;51.332;22.804;2023-10-09T10:48:35;99846.03;;;9.53;60.01
77410;BME280;66481;51.332;22.804;2023-10-09T10:52:39;99860.25;;;10.53;58.63
77410;BME280;66481;51.332;22.804;2023-10-09T10:56:43;99850.19;;;10.59;59.72
77410;BME280;66481;51.332;22.804;2023-10-09T11:00:51;99837.75;;;10.48;56.96
77410;BME280;66481;51.332;22.804;2023-10-09T11:04:59;99804.91;;;9.75;58.48
77410;BME280;66481;51.332;22.804;2023-10-09T11:09:23;99792.91;;;9.18;58.67
77410;BME280;66481;51.332;22.804;2023-10-09T11:13:35;99798.19;;;9.18;60.36
77410;BME280;66481;51.332;22.804;2023-10-09T11:17:38;99788.25;;;9.21;60.52
77410;BME280;66481;51.332;22.804;2023-10-09T11:21:41;99791.09;;;9.06;61.04
77410;BME280;66481;51.332;22.804;2023-10-09T11:25:45;99784.16;;;8.77;60.68
77410;BME280;66481;51.332;22.804;2023-10-09T11:29:53;99776.66;;;8.84;61.71
77410;BME280;66481;51.332;22.804;2023-10-09T11:33:55;99768.97;;;8.81;61.05
77410;BME280;66481;51.332;22.804;2023-10-09T11:37:56;99773.59;;;8.77;63.48
77410;BME280;66481;51.332;22.804;2023-10-09T11:42:02;99754.22;;;8.64;63.43
77410;BME280;66481;51.332;22.804;2023-10-09T11:46:09;99743.22;;;8.16;63.25
77410;BME280;66481;51.332;22.804;2023-10-09T11:50:14;99745.06;;;8.28;63.59
77410;BME280;66481;51.332;22.804;2023-10-09T11:54:30;99740.22;;;8.49;63.64
77410;BME280;66481;51.332;22.804;2023-10-09T11:58:32;99742.53;;;8.26;63.42
77410;BME280;66481;51.332;22.804;2023-10-09T12:02:33;99755.50;;;8.44;65.62
77410;BME280;66481;51.332;22.804;2023-10-09T12:06:34;99753.91;;;8.41;64.37
77410;BME280;66481;51.332;22.804;2023-10-09T12:10:36;99747.47;;;8.04;64.73
77410;BME280;66481;51.332;22.804;2023-10-09T12:14:38;99740.94;;;8.09;64.52
77410;BME280;66481;51.332;22.804;2023-10-09T12:18:41;99733.31;;;8.19;65.03
77410;BME280;66481;51.332;22.804;2023-10-09T12:22:43;99732.66;;;8.16;66.43
77410;BME280;66481;51.332;22.804;2023-10-09T12:26:44;99739.94;;;8.12;66.25
77410;BME280;66481;51.332;22.804;2023-10-09T12:30:50;99740.56;;;8.16;67.66
77410;BME280;66481;51.332;22.804;2023-10-09T12:34:51;99735.16;;;8.32;68.08
77410;BME280;66481;51.332;22.804;2023-10-09T12:38:52;99739.50;;;8.47;68.42
77410;BME280;66481;51.332;22.804;2023-10-09T12:42:59;99738.69;;;8.59;67.22
77410;BME280;66481;51.332;22.804;2023-10-09T12:47:00;99746.50;;;8.88;67.90
77410;BME280;66481;51.332;22.804;2023-10-09T12:51:05;99742.66;;;8.79;67.17
77410;BME280;66481;51.332;22.804;2023-10-09T12:55:07;99756.88;;;9.04;67.76
77410;BME280;66481;51.332;22.804;2023-10-09T12:59:10;99751.88;;;8.99;68.16
77410;BME280;66481;51.332;22.804;2023-10-09T13:03:16;99758.44;;;9.07;70.33
77410;BME280;66481;51.332;22.804;2023-10-09T13:07:18;99748.03;;;9.05;69.40
77410;BME280;66481;51.332;22.804;2023-10-09T13:11:22;99745.47;;;9.03;69.91
77410;BME280;66481;51.332;22.804;2023-10-09T13:20:46;99730.31;;;8.80;71.95
77410;BME280;66481;51.332;22.804;2023-10-09T13:24:47;99710.31;;;8.63;71.59
77410;BME280;66481;51.332;22.804;2023-10-09T13:28:55;99711.56;;;8.57;72.60
77410;BME280;66481;51.332;22.804;2023-10-09T13:32:56;99720.41;;;8.56;72.86
77410;BME280;66481;51.332;22.804;2023-10-09T13:36:57;99713.13;;;8.47;72.92
77410;BME280;66481;51.332;22.804;2023-10-09T13:41:10;99712.94;;;8.50;73.08
77410;BME280;66481;51.332;22.804;2023-10-09T13:45:13;99713.56;;;8.54;74.27
77410;BME280;66481;51.332;22.804;2023-10-09T13:49:16;99717.34;;;8.35;75.00
77410;BME280;66481;51.332;22.804;2023-10-09T13:53:18;99720.63;;;8.39;75.31
77410;BME280;66481;51.332;22.804;2023-10-09T13:57:20;99718.50;;;8.31;75.33
77410;BME280;66481;51.332;22.804;2023-10-09T14:01:23;99715.94;;;8.02;75.98
77410;BME280;66481;51.332;22.804;2023-10-09T14:05:33;99704.69;;;7.86;77.25
77410;BME280;66481;51.332;22.804;2023-10-09T14:09:34;99709.38;;;7.95;76.78
77410;BME280;66481;51.332;22.804;2023-10-09T14:14:05;99704.94;;;7.96;78.54
77410;BME280;66481;51.332;22.804;2023-10-09T14:18:10;99706.25;;;8.03;78.02
77410;BME280;66481;51.332;22.804;2023-10-09T14:22:16;99689.13;;;7.96;77.73
77410;BME280;66481;51.332;22.804;2023-10-09T14:26:16;99686.88;;;7.75;78.46
77410;BME280;66481;51.332;22.804;2023-10-09T14:30:19;99687.75;;;7.76;79.51
77410;BME280;66481;51.332;22.804;2023-10-09T14:34:31;99689.53;;;7.61;79.95
77410;BME280;66481;51.332;22.804;2023-10-09T14:38:36;99687.47;;;7.66;80.59
77410;BME280;66481;51.332;22.804;2023-10-09T14:42:39;99685.34;;;7.58;80.87
77410;BME280;66481;51.332;22.804;2023-10-09T14:46:45;99678.63;;;7.52;81.11
77410;BME280;66481;51.332;22.804;2023-10-09T14:50:50;99683.06;;;7.52;81.76
77410;BME280;66481;51.332;22.804;2023-10-09T14:54:55;99683.63;;;7.43;82.01
77410;BME280;66481;51.332;22.804;2023-10-09T14:59:00;99680.91;;;7.44;81.92
77410;BME280;66481;51.332;22.804;2023-10-09T15:03:01;99677.06;;;7.36;82.73
77410;BME280;66481;51.332;22.804;2023-10-09T15:07:06;99672.53;;;7.23;82.80
77410;BME280;66481;51.332;22.804;2023-10-09T15:11:07;99670.19;;;7.19;83.61
77410;BME280;66481;51.332;22.804;2023-10-09T15:15:10;99674.88;;;7.13;83.56
77410;BME280;66481;51.332;22.804;2023-10-09T15:19:14;99678.34;;;7.00;84.55
77410;BME280;66481;51.332;22.804;2023-10-09T15:23:17;99679.31;;;6.83;84.62
77410;BME280;66481;51.332;22.804;2023-10-09T15:27:20;99670.66;;;6.50;85.97
77410;BME280;66481;51.332;22.804;2023-10-09T15:31:22;99652.94;;;6.24;86.47
77410;BME280;66481;51.332;22.804;2023-10-09T15:35:23;99674.13;;;6.20;86.53
77410;BME280;66481;51.332;22.804;2023-10-09T15:39:25;99686.00;;;6.12;87.66
77410;BME280;66481;51.332;22.804;2023-10-09T15:43:29;99679.59;;;5.84;88.96
77410;BME280;66481;51.332;22.804;2023-10-09T15:47:30;99684.59;;;5.73;89.15
77410;BME280;66481;51.332;22.804;2023-10-09T15:51:33;99687.47;;;5.52;90.34
77410;BME280;66481;51.332;22.804;2023-10-09T15:55:35;99691.28;;;5.29;91.75
77410;BME280;66481;51.332;22.804;2023-10-09T15:59:38;99696.84;;;5.23;92.18
77410;BME280;66481;51.332;22.804;2023-10-09T16:03:44;99693.03;;;4.95;92.76
77410;BME280;66481;51.332;22.804;2023-10-09T16:07:48;99689.56;;;4.77;94.01
77410;BME280;66481;51.332;22.804;2023-10-09T16:11:49;99729.25;;;5.04;94.01
77410;BME280;66481;51.332;22.804;2023-10-09T16:15:50;99718.38;;;4.95;94.17
77410;BME280;66481;51.332;22.804;2023-10-09T16:19:52;99720.72;;;4.83;94.76
77410;BME280;66481;51.332;22.804;2023-10-09T16:23:53;99713.53;;;4.69;94.95
77410;BME280;66481;51.332;22.804;2023-10-09T16:27:54;99743.22;;;4.70;95.43
77410;BME280;66481;51.332;22.804;2023-10-09T16:31:57;99742.28;;;4.54;95.84
77410;BME280;66481;51.332;22.804;2023-10-09T16:35:58;99735.34;;;4.33;97.09
77410;BME280;66481;51.332;22.804;2023-10-09T16:40:00;99746.41;;;4.21;97.44
77410;BME280;66481;51.332;22.804;2023-10-09T16:44:07;99748.47;;;4.14;98.54
77410;BME280;66481;51.332;22.804;2023-10-09T16:48:13;99759.50;;;4.02;99.21
77410;BME280;66481;51.332;22.804;2023-10-09T16:52:16;99754.19;;;3.85;98.91
77410;BME280;66481;51.332;22.804;2023-10-09T16:56:19;99763.97;;;3.81;98.96
77410;BME280;66481;51.332;22.804;2023-10-09T17:00:21;99748.66;;;3.72;100.00
77410;BME280;66481;51.332;22.804;2023-10-09T17:04:35;99766.81;;;3.56;100.00
77410;BME280;66481;51.332;22.804;2023-10-09T17:08:38;99756.69;;;3.48;100.00
77410;BME280;66481;51.332;22.804;2023-10-09T17:12:43;99776.25;;;3.60;100.00
77410;BME280;66481;51.332;22.804;2023-10-09T17:16:47;99777.97;;;3.60;100.00
77410;BME280;66481;51.332;22.804;2023-10-09T17:20:48;99774.72;;;3.54;100.00
77410;BME280;66481;51.332;22.804;2023-10-09T17:24:50;99777.34;;;3.54;100.00
77410;BME280;66481;51.332;22.804;2023-10-09T17:28:53;99784.94;;;3.40;100.00
77410;BME280;66481;51.332;22.804;2023-10-09T17:32:55;99784.47;;;3.30;100.00
77410;BME280;66481;51.332;22.804;2023-10-09T17:36:58;99809.91;;;3.27;100.00
77410;BME280;66481;51.332;22.804;2023-10-09T17:41:00;99792.53;;;3.05;100.00
77410;BME280;66481;51.332;22.804;2023-10-09T17:45:04;99806.56;;;3.03;100.00
77410;BME280;66481;51.332;22.804;2023-10-09T17:49:06;99810.34;;;2.95;100.00
77410;BME280;66481;51.332;22.804;2023-10-09T17:53:07;99825.91;;;2.98;100.00
77410;BME280;66481;51.332;22.804;2023-10-09T17:57:09;99825.28;;;3.14;100.00
77410;BME280;66481;51.332;22.804;2023-10-09T18:01:11;99812.94;;;3.38;100.00
77410;BME280;66481;51.332;22.804;2023-10-09T18:05:14;99820.19;;;3.52;100.00
77410;BME280;66481;51.332;22.804;2023-10-09T18:09:16;99815.38;;;3.43;100.00
77410;BME280;66481;51.332;22.804;2023-10-09T18:13:18;99817.50;;;3.33;100.00
77410;BME280;66481;51.332;22.804;2023-10-09T18:17:22;99831.63;;;3.49;100.00
77410;BME280;66481;51.332;22.804;2023-10-09T18:21:24;99819.72;;;3.42;100.00
77410;BME280;66481;51.332;22.804;2023-10-09T18:25:26;99807.75;;;3.36;100.00
77410;BME280;66481;51.332;22.804;2023-10-09T18:29:28;99811.75;;;3.45;100.00
77410;BME280;66481;51.332;22.804;2023-10-09T18:33:32;99804.19;;;3.18;100.00
77410;BME280;66481;51.332;22.804;2023-10-09T18:37:34;99792.97;;;2.94;100.00
77410;BME280;66481;51.332;22.804;2023-10-09T18:41:42;99809.56;;;2.93;100.00
77410;BME280;66481;51.332;22.804;2023-10-09T18:45:48;99813.63;;;2.78;100.00
77410;BME280;66481;51.332;22.804;2023-10-09T18:49:51;99828.06;;;2.67;100.00
77410;BME280;66481;51.332;22.804;2023-10-09T18:53:52;99824.38;;;2.49;100.00
77410;BME280;66481;51.332;22.804;2023-10-09T18:57:53;99828.88;;;2.45;100.00
77410;BME280;66481;51.332;22.804;2023-10-09T19:01:55;99833.00;;;2.29;100.00
77410;BME280;66481;51.332;22.804;2023-10-09T19:05:59;99820.66;;;2.09;100.00
77410;BME280;66481;51.332;22.804;2023-10-09T19:10:00;99844.47;;;2.23;100.00
77410;BME280;66481;51.332;22.804;2023-10-09T19:14:01;99831.06;;;2.10;100.00
77410;BME280;66481;51.332;22.804;2023-10-09T19:18:04;99856.41;;;2.06;100.00
77410;BME280;66481;51.332;22.804;2023-10-09T19:22:07;99867.94;;;2.01;100.00
77410;BME280;66481;51.332;22.804;2023-10-09T19:26:10;99866.28;;;1.98;100.00
77410;BME280;66481;51.332;22.804;2023-10-09T19:30:20;99879.59;;;1.91;100.00
77410;BME280;66481;51.332;22.804;2023-10-09T19:34:22;99883.16;;;1.88;100.00
77410;BME280;66481;51.332;22.804;2023-10-09T19:38:22;99886.47;;;1.93;100.00
77410;BME280;66481;51.332;22.804;2023-10-09T19:42:24;99894.53;;;1.87;100.00
77410;BME280;66481;51.332;22.804;2023-10-09T19:46:26;99907.34;;;1.93;100.00
77410;BME280;66481;51.332;22.804;2023-10-09T19:50:28;99890.19;;;1.86;100.00
77410;BME280;66481;51.332;22.804;2023-10-09T19:54:30;99915.75;;;1.76;100.00
77410;BME280;66481;51.332;22.804;2023-10-09T19:58:32;99918.91;;;1.86;100.00
77410;BME280;66481;51.332;22.804;2023-10-09T20:02:33;99933.75;;;2.09;100.00
77410;BME280;66481;51.332;22.804;2023-10-09T20:06:37;99931.94;;;2.11;100.00
77410;BME280;66481;51.332;22.804;2023-10-09T20:10:43;99911.88;;;1.88;100.00
77410;BME280;66481;51.332;22.804;2023-10-09T20:14:45;99936.88;;;1.94;100.00
77410;BME280;66481;51.332;22.804;2023-10-09T20:18:47;99932.59;;;1.93;100.00
77410;BME280;66481;51.332;22.804;2023-10-09T20:22:50;99924.88;;;2.15;100.00
77410;BME280;66481;51.332;22.804;2023-10-09T20:26:54;99932.88;;;2.34;100.00
77410;BME280;66481;51.332;22.804;2023-10-09T20:30:56;99930.53;;;2.26;100.00
77410;BME280;66481;51.332;22.804;2023-10-09T20:35:02;99923.31;;;2.09;100.00
77410;BME280;66481;51.332;22.804;2023-10-09T20:39:13;99934.63;;;2.10;100.00
77410;BME280;66481;51.332;22.804;2023-10-09T20:43:17;99938.56;;;1.96;100.00
77410;BME280;66481;51.332;22.804;2023-10-09T20:47:18;99934.56;;;1.86;100.00
77410;BME280;66481;51.332;22.804;2023-10-09T20:51:19;99956.13;;;1.91;100.00
77410;BME280;66481;51.332;22.804;2023-10-09T20:55:21;99964.59;;;1.98;100.00
77410;BME280;66481;51.332;22.804;2023-10-09T20:59:24;99941.25;;;1.93;100.00
77410;BME280;66481;51.332;22.804;2023-10-09T21:03:27;99959.41;;;2.21;100.00
77410;BME280;66481;51.332;22.804;2023-10-09T21:07:28;99957.47;;;2.03;100.00
77410;BME280;66481;51.332;22.804;2023-10-09T21:11:31;99952.03;;;1.84;100.00
77410;BME280;66481;51.332;22.804;2023-10-09T21:15:38;99968.69;;;2.05;100.00
77410;BME280;66481;51.332;22.804;2023-10-09T21:19:42;99945.00;;;2.11;100.00
77410;BME280;66481;51.332;22.804;2023-10-09T21:23:43;99976.84;;;2.46;100.00
77410;BME280;66481;51.332;22.804;2023-10-09T21:27:46;99952.44;;;2.45;100.00
77410;BME280;66481;51.332;22.804;2023-10-09T21:31:47;99951.41;;;2.51;100.00
77410;BME280;66481;51.332;22.804;2023-10-09T21:35:50;99948.72;;;2.53;100.00